Time;durP1;ratioP1;P1;durP2;ratioP2;P2;SDS_P1;SDS_P2;PMS_P1;PMS_P2;Temp;Humidity;BMP_temperature;BMP_pressure;BME280_temperature;BME280_humidity;BME280_pressure;Samples;Min_cycle;Max_cycle;Signal;HPM_P1;HPM_P2
2022/08/06 00:01:03;;;;;;;14.47;13.15;;;;;;;21.14;94.94;99766.50;1798970;78;21119;-81
2022/08/06 00:03:30;;;;;;;13.80;12.50;;;;;;;21.07;95.11;99764.98;1816755;78;21022;-80
2022/08/06 00:05:58;;;;;;;14.43;12.40;;;;;;;21.05;95.00;99764.39;1799895;79;21017;-78
2022/08/06 00:08:24;;;;;;;14.50;12.63;;;;;;;21.07;94.97;99764.44;1800275;79;21017;-80
2022/08/06 00:10:51;;;;;;;14.28;12.82;;;;;;;21.04;94.90;99767.64;1798320;78;21043;-78
2022/08/06 00:13:18;;;;;;;13.80;12.45;;;;;;;20.97;94.90;99769.09;1806858;77;21086;-80
2022/08/06 00:15:45;;;;;;;13.35;12.13;;;;;;;20.97;95.04;99775.03;1822900;78;21003;-79
2022/08/06 00:18:12;;;;;;;14.20;13.00;;;;;;;21.01;94.93;99772.98;1821010;77;21136;-80
2022/08/06 00:20:39;;;;;;;14.43;13.13;;;;;;;20.97;94.93;99776.38;1815813;78;21044;-78
2022/08/06 00:23:05;;;;;;;13.45;12.28;;;;;;;20.92;94.97;99774.91;1810652;77;21013;-79
2022/08/06 00:25:32;;;;;;;13.32;12.03;;;;;;;20.92;94.96;99783.84;1820673;77;21527;-81
2022/08/06 00:27:59;;;;;;;13.55;12.18;;;;;;;20.94;94.78;99788.48;1824532;77;21085;-81
2022/08/06 00:30:26;;;;;;;15.00;13.48;;;;;;;20.88;94.90;99789.42;1822303;77;21469;-80
2022/08/06 00:32:52;;;;;;;13.10;11.80;;;;;;;20.80;95.20;99793.80;1813787;78;21564;-78
2022/08/06 00:35:20;;;;;;;13.18;11.80;;;;;;;20.79;95.14;99797.04;1798274;77;21030;-79
2022/08/06 00:37:47;;;;;;;13.30;11.90;;;;;;;20.84;94.98;99800.91;1824057;77;20987;-81
2022/08/06 00:40:14;;;;;;;13.08;11.88;;;;;;;20.79;95.02;99796.22;1823777;77;21042;-79
2022/08/06 00:42:41;;;;;;;12.75;11.63;;;;;;;20.71;95.05;99799.28;1799360;78;22164;-79
2022/08/06 00:45:08;;;;;;;12.28;11.10;;;;;;;20.69;95.03;99797.34;1805243;77;21024;-78
2022/08/06 00:47:35;;;;;;;12.53;11.33;;;;;;;20.72;94.85;99796.32;1813295;77;21600;-81
2022/08/06 00:50:03;;;;;;;13.53;12.33;;;;;;;20.70;94.89;99798.44;1816256;77;21539;-80
2022/08/06 00:52:29;;;;;;;12.85;11.55;;;;;;;20.62;95.00;99798.25;1819601;77;21501;-80
2022/08/06 00:54:57;;;;;;;12.05;10.93;;;;;;;20.61;94.97;99796.63;1826478;77;21127;-81
2022/08/06 00:57:23;;;;;;;13.62;11.78;;;;;;;20.66;94.64;99802.66;1827852;78;20960;-81
2022/08/06 00:59:50;;;;;;;13.13;11.53;;;;;;;20.64;94.61;99799.91;1827201;77;21076;-81
2022/08/06 01:02:16;;;;;;;12.13;11.10;;;;;;;20.55;94.63;99802.92;1819517;77;21065;-80
2022/08/06 01:04:43;;;;;;;12.50;11.30;;;;;;;20.55;94.62;99800.73;1810516;78;21546;-82
2022/08/06 01:07:09;;;;;;;14.87;11.73;;;;;;;20.57;94.41;99802.66;1825326;78;21495;-80
2022/08/06 01:09:35;;;;;;;12.50;11.38;;;;;;;20.54;94.32;99799.91;1823858;77;21564;-81
2022/08/06 01:12:02;;;;;;;11.68;10.58;;;;;;;20.47;94.25;99795.14;1820242;77;20999;-81
2022/08/06 01:14:29;;;;;;;11.10;10.15;;;;;;;20.47;94.04;99799.19;1813414;77;21093;-80
2022/08/06 01:17:02;;;;;;;12.63;11.45;;;;;;;20.50;93.83;99800.09;1829238;77;21017;-80
2022/08/06 01:20:00;;;;;;;;;;;;;;;20.46;93.86;99804.84;1831921;77;21325;-83
2022/08/06 01:23:04;;;;;;;11.15;10.15;;;;;;;20.38;93.76;99803.30;1808745;78;20185;-81
2022/08/06 01:26:08;;;;;;;11.40;9.83;;;;;;;20.33;93.75;99807.20;1762762;81;21548;-80
2022/08/06 01:28:58;;;;;;;11.80;10.32;;;;;;;20.38;93.53;99801.95;1763070;80;21637;-82
2022/08/06 01:31:29;;;;;;;11.60;10.45;;;;;;;20.32;93.45;99802.84;1749762;81;21115;-83
2022/08/06 01:34:02;;;;;;;10.63;9.60;;;;;;;20.24;93.55;99794.55;1759451;79;21059;-79
2022/08/06 01:36:42;;;;;;;10.50;9.68;;;;;;;20.26;93.34;99802.42;1766897;81;21012;-80
2022/08/06 01:39:10;;;;;;;10.75;9.80;;;;;;;20.28;93.17;99806.56;1767549;80;21011;-80
2022/08/06 01:41:45;;;;;;;11.53;9.95;;;;;;;20.23;93.17;99802.37;1767373;81;21072;-83
2022/08/06 01:44:15;;;;;;;10.63;9.63;;;;;;;20.15;93.24;99800.82;1778919;80;21009;-79
2022/08/06 01:46:48;;;;;;;9.55;8.45;;;;;;;20.15;93.09;99795.42;1764710;79;21116;-82
2022/08/06 01:49:19;;;;;;;11.60;9.60;;;;;;;20.21;92.72;99796.39;1784667;79;21092;-81
2022/08/06 01:51:46;;;;;;;10.38;9.48;;;;;;;20.15;92.65;99788.69;1830051;77;21024;-82
2022/08/06 01:54:12;;;;;;;10.68;9.63;;;;;;;20.08;92.69;99798.73;1813126;77;21024;-82
2022/08/06 01:56:40;;;;;;;9.25;8.45;;;;;;;20.11;92.55;99794.75;1825544;77;21082;-81
2022/08/06 01:59:08;;;;;;;11.83;9.15;;;;;;;20.15;92.20;99797.31;1829281;77;21209;-85
2022/08/06 02:01:35;;;;;;;11.12;10.03;;;;;;;20.11;92.18;99799.64;1817030;77;21047;-84
2022/08/06 02:04:01;;;;;;;10.35;8.73;;;;;;;20.06;92.23;99805.42;1831313;77;21183;-83
2022/08/06 02:06:41;;;;;;;10.60;8.63;;;;;;;20.06;92.05;99802.19;1817806;75;21020;-83
2022/08/06 02:09:14;;;;;;;9.90;8.90;;;;;;;20.12;91.71;99797.22;1825773;78;21515;-82
2022/08/06 02:11:41;;;;;;;10.43;9.43;;;;;;;20.08;91.59;99796.57;1815581;78;21156;-85
2022/08/06 02:14:07;;;;;;;9.05;8.25;;;;;;;20.01;91.68;99796.65;1812110;78;21585;-80
2022/08/06 02:16:37;;;;;;;10.38;9.48;;;;;;;20.02;91.68;99795.08;1825462;77;21035;-85
2022/08/06 02:19:04;;;;;;;9.88;8.93;;;;;;;20.10;91.48;99799.86;1818769;77;21103;-84
2022/08/06 02:21:32;;;;;;;11.88;10.50;;;;;;;20.03;91.50;99798.62;1796776;78;21340;-80
2022/08/06 02:23:59;;;;;;;10.82;9.00;;;;;;;19.97;91.61;99803.05;1828285;77;21004;-83
2022/08/06 02:26:26;;;;;;;9.00;8.25;;;;;;;19.98;91.63;99802.52;1825965;77;21194;-82
2022/08/06 02:28:52;;;;;;;10.85;8.95;;;;;;;20.01;91.51;99806.09;1826237;78;21512;-82
2022/08/06 02:31:18;;;;;;;9.70;8.90;;;;;;;19.98;91.58;99805.21;1824515;78;21099;-81
2022/08/06 02:33:45;;;;;;;9.73;8.83;;;;;;;19.93;91.64;99811.80;1825353;77;21496;-82
2022/08/06 02:36:19;;;;;;;10.35;8.90;;;;;;;19.91;91.75;99803.94;1801884;77;21063;-79
2022/08/06 02:38:57;;;;;;;9.45;8.65;;;;;;;19.97;91.67;99813.83;1781011;79;20988;-78
2022/08/06 02:41:30;;;;;;;11.08;10.05;;;;;;;19.94;91.76;99810.77;1742002;80;21491;-80
2022/08/06 02:44:11;;;;;;;8.73;8.00;;;;;;;19.88;92.07;99817.08;1771211;79;21531;-81
2022/08/06 02:46:44;;;;;;;10.43;9.28;;;;;;;19.88;92.14;99813.03;1769960;79;21643;-81
2022/08/06 02:49:22;;;;;;;11.25;10.25;;;;;;;19.94;91.94;99816.16;1770942;79;21386;-80
2022/08/06 02:51:58;;;;;;;10.80;9.75;;;;;;;19.89;92.02;99822.22;1771819;81;21080;-79
2022/08/06 02:54:37;;;;;;;10.35;9.33;;;;;;;19.83;92.14;99821.25;1769424;79;21100;-81
2022/08/06 02:57:05;;;;;;;10.00;9.00;;;;;;;19.86;92.29;99827.23;1768890;79;21005;-80
2022/08/06 02:59:35;;;;;;;10.82;9.93;;;;;;;19.89;92.20;99825.45;1770768;80;21559;-79
2022/08/06 03:02:03;;;;;;;11.12;10.13;;;;;;;19.86;92.36;99832.13;1770495;79;21820;-81
2022/08/06 03:04:30;;;;;;;10.82;9.75;;;;;;;19.81;92.49;99838.70;1763036;79;21037;-82
2022/08/06 03:06:58;;;;;;;10.38;8.83;;;;;;;19.82;92.48;99839.02;1742236;80;21058;-81
2022/08/06 03:09:25;;;;;;;10.80;9.80;;;;;;;19.88;92.37;99829.20;1774251;79;21059;-80
2022/08/06 03:11:51;;;;;;;11.75;10.70;;;;;;;19.86;92.50;99832.63;1773810;80;21077;-79
2022/08/06 03:14:18;;;;;;;10.43;9.53;;;;;;;19.84;92.78;99831.53;1771399;79;21210;-81
2022/08/06 03:16:44;;;;;;;10.65;9.68;;;;;;;19.88;92.68;99834.59;1750433;80;21084;-79
2022/08/06 03:20:04;;;;;;;12.03;10.82;;;;;;;19.95;92.40;99835.31;1796655;78;22565;-81
2022/08/06 03:22:31;;;;;;;12.85;11.57;;;;;;;19.88;92.43;99831.91;1753297;80;21061;-81
2022/08/06 03:24:58;;;;;;;12.00;10.90;;;;;;;19.83;92.55;99838.77;1752920;80;21275;-82
2022/08/06 03:27:25;;;;;;;12.35;11.25;;;;;;;19.88;92.53;99835.95;1733318;81;21026;-81
2022/08/06 03:29:52;;;;;;;13.55;12.25;;;;;;;19.95;92.25;99843.41;1750404;80;21479;-82
2022/08/06 03:32:18;;;;;;;13.90;12.50;;;;;;;19.94;92.23;99841.23;1763519;80;20937;-83
2022/08/06 03:34:44;;;;;;;12.23;10.28;;;;;;;19.91;92.18;99847.61;1754396;80;21001;-82
2022/08/06 03:37:11;;;;;;;11.43;10.43;;;;;;;19.94;92.17;99846.63;1751586;81;22342;-82
2022/08/06 03:39:39;;;;;;;12.15;10.75;;;;;;;20.03;92.00;99849.32;1752271;80;22164;-84
2022/08/06 03:42:07;;;;;;;12.35;11.25;;;;;;;20.04;91.84;99849.59;1749150;80;21075;-83
2022/08/06 03:44:33;;;;;;;11.83;9.90;;;;;;;20.03;91.84;99853.36;1753706;81;21443;-83
2022/08/06 03:47:05;;;;;;;11.25;10.15;;;;;;;20.09;91.73;99853.48;1752877;80;21003;-83
2022/08/06 03:49:39;;;;;;;11.35;10.25;;;;;;;20.17;91.56;99855.35;1747581;80;21183;-83
2022/08/06 03:52:05;;;;;;;12.53;11.25;;;;;;;20.20;91.53;99866.20;1708933;83;21026;-82
2022/08/06 03:54:37;;;;;;;13.58;10.70;;;;;;;20.20;91.55;99862.16;1743461;80;21053;-80
2022/08/06 03:57:10;;;;;;;11.63;10.43;;;;;;;20.27;91.54;99865.59;1753677;81;20978;-74
2022/08/06 03:59:41;;;;;;;12.03;10.95;;;;;;;20.40;91.36;99865.94;1750934;80;21070;-81
2022/08/06 04:02:07;;;;;;;12.43;11.25;;;;;;;20.45;91.21;99862.55;1752405;80;21016;-79
2022/08/06 04:04:34;;;;;;;11.85;10.65;;;;;;;20.49;91.54;99861.03;1750879;80;21011;-78
2022/08/06 04:07:01;;;;;;;12.10;10.82;;;;;;;20.57;91.67;99858.84;1742214;80;21076;-78
2022/08/06 04:09:27;;;;;;;12.73;11.53;;;;;;;20.70;91.61;99864.56;1769374;80;21538;-76
2022/08/06 04:11:54;;;;;;;13.72;12.35;;;;;;;20.74;91.59;99864.93;1751453;81;21128;-78
2022/08/06 04:14:21;;;;;;;13.18;11.78;;;;;;;20.73;91.77;99864.66;1755786;80;22241;-78
2022/08/06 04:16:48;;;;;;;13.25;12.13;;;;;;;20.80;91.35;99869.40;1794668;80;21001;-78
2022/08/06 04:19:15;;;;;;;12.98;11.78;;;;;;;20.97;91.10;99874.95;1750339;80;21039;-77
2022/08/06 04:21:41;;;;;;;14.00;12.70;;;;;;;21.06;90.84;99874.09;1710930;82;21010;-79
2022/08/06 04:24:08;;;;;;;14.45;13.15;;;;;;;21.10;90.55;99876.61;1714900;82;21117;-79
2022/08/06 04:26:35;;;;;;;20.70;12.82;;;;;;;21.23;90.17;99880.44;1701463;82;21565;-80
2022/08/06 04:29:01;;;;;;;15.10;13.70;;;;;;;21.39;89.43;99877.01;1713788;82;21096;-79
2022/08/06 04:31:28;;;;;;;15.15;13.62;;;;;;;21.49;88.99;99875.09;1692424;83;21559;-79
2022/08/06 04:33:55;;;;;;;16.35;14.85;;;;;;;21.59;88.79;99878.55;1707892;83;21599;-82
2022/08/06 04:36:22;;;;;;;14.63;13.20;;;;;;;21.62;88.22;99879.44;1703274;82;21521;-81
2022/08/06 04:38:48;;;;;;;15.05;13.75;;;;;;;21.68;87.71;99877.66;1711606;82;21732;-80
2022/08/06 04:41:15;;;;;;;16.97;15.25;;;;;;;21.76;87.21;99879.45;1712343;82;21089;-79
2022/08/06 04:43:41;;;;;;;16.10;14.47;;;;;;;21.76;87.23;99871.87;1701313;82;21502;-80
2022/08/06 04:46:08;;;;;;;15.83;14.43;;;;;;;21.83;87.76;99875.79;1705552;83;21030;-79
2022/08/06 04:48:35;;;;;;;16.37;14.73;;;;;;;22.07;88.15;99880.08;1711822;82;21097;-80
2022/08/06 04:51:05;;;;;;;16.62;15.10;;;;;;;22.30;87.74;99875.14;1678741;83;21207;-79
2022/08/06 04:53:39;;;;;;;16.07;14.58;;;;;;;22.42;87.75;99875.08;1695709;83;21104;-81
2022/08/06 04:56:06;;;;;;;16.67;15.25;;;;;;;22.49;86.97;99883.06;1708697;82;21498;-77
2022/08/06 04:58:33;;;;;;;15.70;14.30;;;;;;;22.60;86.58;99877.28;1698248;84;21525;-81
2022/08/06 05:01:01;;;;;;;15.32;14.03;;;;;;;22.73;86.00;99876.97;1700177;83;21117;-80
2022/08/06 05:03:28;;;;;;;16.57;14.98;;;;;;;22.85;85.81;99881.80;1706533;82;21146;-77
2022/08/06 05:06:12;;;;;;;14.10;12.75;;;;;;;22.96;85.32;99884.13;1708923;82;21085;-79
2022/08/06 05:08:41;;;;;;;15.83;14.15;;;;;;;23.03;85.09;99879.95;1683278;83;21068;-80
2022/08/06 05:11:19;;;;;;;16.20;14.50;;;;;;;23.14;84.16;99876.30;1712729;82;21081;-79
2022/08/06 05:13:46;;;;;;;16.37;14.98;;;;;;;23.12;83.74;99882.50;1674767;84;21038;-79
2022/08/06 05:16:14;;;;;;;16.48;14.87;;;;;;;23.04;83.86;99882.92;1713073;82;21694;-80
2022/08/06 05:18:48;;;;;;;15.10;13.65;;;;;;;23.00;84.50;99878.50;1739224;80;21017;-80
2022/08/06 05:21:18;;;;;;;16.60;15.23;;;;;;;23.10;84.83;99879.22;1699195;83;21069;-77
2022/08/06 05:23:47;;;;;;;17.55;15.85;;;;;;;23.19;84.94;99881.00;1715959;81;21050;-78
2022/08/06 05:26:13;;;;;;;17.67;15.93;;;;;;;23.19;85.12;99876.93;1688736;83;21080;-78
2022/08/06 05:28:40;;;;;;;17.50;15.65;;;;;;;23.18;85.59;99873.92;1685686;83;21283;-78
2022/08/06 05:31:07;;;;;;;18.12;16.48;;;;;;;23.23;86.13;99876.17;1679273;84;21030;-78
2022/08/06 05:33:36;;;;;;;17.65;15.85;;;;;;;23.34;85.15;99879.33;1676352;84;21042;-79
2022/08/06 05:36:06;;;;;;;20.52;18.67;;;;;;;23.33;84.61;99877.70;1718952;82;21549;-79
2022/08/06 05:38:36;;;;;;;19.25;17.35;;;;;;;23.35;84.65;99880.98;1716241;82;21085;-79
2022/08/06 05:41:04;;;;;;;17.52;15.60;;;;;;;;;;1717337;81;21165;-78
2022/08/06 05:43:30;;;;;;;16.05;14.65;;;;;;;23.43;84.26;99882.95;1721845;81;21501;-78
2022/08/06 05:46:01;;;;;;;16.82;15.30;;;;;;;23.52;83.91;99882.28;1707552;81;21105;-78
2022/08/06 05:48:30;;;;;;;16.75;15.30;;;;;;;23.53;83.27;99885.29;1725837;81;20986;-77
2022/08/06 05:51:01;;;;;;;16.77;15.23;;;;;;;23.54;83.14;99890.17;1694311;81;21029;-80
2022/08/06 05:53:37;;;;;;;14.87;13.53;;;;;;;23.57;83.05;99882.09;1723170;81;21156;-84
2022/08/06 05:56:20;;;;;;;16.70;14.73;;;;;;;23.64;83.08;99891.69;1731065;81;21068;-86
2022/08/06 05:59:03;;;;;;;16.77;15.03;;;;;;;23.77;83.13;99885.59;1721089;81;20990;-86
2022/08/06 06:01:30;;;;;;;16.07;14.65;;;;;;;23.82;83.00;99879.73;1717425;82;21077;-78
2022/08/06 06:03:57;;;;;;;16.70;15.20;;;;;;;23.84;82.10;99877.59;1692500;82;21088;-82
2022/08/06 06:06:23;;;;;;;15.25;13.85;;;;;;;23.84;82.17;99879.48;1717260;81;21833;-82
2022/08/06 06:08:49;;;;;;;15.68;14.28;;;;;;;23.91;81.32;99875.52;1720574;82;21028;-80
2022/08/06 06:11:16;;;;;;;16.75;15.15;;;;;;;24.00;80.98;99877.77;1721644;82;22093;-81
2022/08/06 06:13:43;;;;;;;16.60;15.20;;;;;;;24.01;80.66;99880.75;1722259;83;21561;-81
2022/08/06 06:16:21;;;;;;;16.20;14.53;;;;;;;23.99;80.83;99878.31;1720255;82;21545;-81
2022/08/06 06:19:14;;;;;;;15.05;13.75;;;;;;;24.01;81.43;99883.47;1717902;81;21150;-82
2022/08/06 06:22:02;;;;;;;16.15;14.65;;;;;;;24.10;80.63;99882.77;1707373;82;21004;-79
2022/08/06 06:24:43;;;;;;;16.42;14.63;;;;;;;24.20;79.98;99879.88;1708597;82;21070;-79
2022/08/06 06:27:36;;;;;;;15.65;14.33;;;;;;;24.20;79.47;99876.63;1714875;82;21015;-80
2022/08/06 06:30:08;;;;;;;15.95;14.63;;;;;;;24.23;79.16;99873.95;1712881;82;21112;-83
2022/08/06 06:32:58;;;;;;;16.87;15.23;;;;;;;24.24;79.32;99870.16;1709546;82;21178;-83
2022/08/06 06:35:50;;;;;;;14.83;13.53;;;;;;;24.31;79.44;99870.78;1713544;83;21102;-83
2022/08/06 06:38:25;;;;;;;14.95;13.55;;;;;;;24.45;79.63;99869.83;1716315;82;20991;-84
2022/08/06 06:41:14;;;;;;;15.30;13.43;;;;;;;24.46;78.86;99875.00;1716522;82;21041;-86
2022/08/06 06:43:46;;;;;;;15.38;13.98;;;;;;;24.46;78.49;99873.65;1709521;82;21109;-85
2022/08/06 06:46:26;;;;;;;14.10;12.85;;;;;;;24.45;78.64;99878.78;1708096;82;21258;-81
2022/08/06 06:49:02;;;;;;;14.73;12.68;;;;;;;24.51;78.38;99879.69;1710135;82;21106;-81
2022/08/06 06:51:33;;;;;;;13.62;12.40;;;;;;;24.60;77.82;99876.79;1710239;82;21531;-80
2022/08/06 06:54:00;;;;;;;14.23;12.65;;;;;;;24.64;77.60;99871.67;1719060;82;21022;-82
2022/08/06 06:56:31;;;;;;;15.32;13.83;;;;;;;24.66;77.36;99873.04;1716084;81;20996;-82
2022/08/06 06:59:08;;;;;;;14.85;13.58;;;;;;;24.66;76.92;99870.33;1714198;82;21051;-82
2022/08/06 07:01:36;;;;;;;15.60;12.50;;;;;;;24.63;78.02;99861.35;1705458;82;21073;-85
2022/08/06 07:04:08;;;;;;;14.63;13.32;;;;;;;24.73;78.23;99857.91;1705802;83;21058;-79
2022/08/06 07:06:35;;;;;;;12.93;11.73;;;;;;;24.81;78.12;99862.85;1706999;83;21605;-79
2022/08/06 07:09:02;;;;;;;15.35;12.07;;;;;;;24.87;77.33;99856.92;1694208;82;21502;-81
2022/08/06 07:11:29;;;;;;;14.73;13.20;;;;;;;24.88;76.79;99857.22;1711151;82;21143;-82
2022/08/06 07:13:57;;;;;;;13.93;12.73;;;;;;;24.90;77.20;99858.59;1707498;82;21092;-82
2022/08/06 07:16:25;;;;;;;15.93;12.20;;;;;;;24.95;77.08;99858.34;1692101;82;21608;-79
2022/08/06 07:18:53;;;;;;;14.45;13.05;;;;;;;25.05;76.92;99862.48;1708622;82;21083;-79
2022/08/06 07:21:20;;;;;;;14.35;12.90;;;;;;;25.17;76.14;99860.41;1708492;82;20995;-79
2022/08/06 07:23:51;;;;;;;14.80;13.40;;;;;;;25.21;76.15;99850.64;1710417;82;21222;-79
2022/08/06 07:26:20;;;;;;;13.58;12.45;;;;;;;25.24;76.30;99856.13;1709803;82;21029;-81
2022/08/06 07:28:47;;;;;;;20.48;13.10;;;;;;;25.23;76.27;99847.16;1710741;82;21121;-80
2022/08/06 07:31:15;;;;;;;14.03;12.63;;;;;;;25.27;76.02;99846.09;1700628;83;20971;-80
2022/08/06 07:33:44;;;;;;;13.30;12.07;;;;;;;25.31;76.23;99850.73;1699326;83;21101;-78
2022/08/06 07:36:11;;;;;;;12.80;11.63;;;;;;;25.45;76.21;99851.08;1708012;82;21116;-80
2022/08/06 07:38:40;;;;;;;14.43;12.93;;;;;;;25.59;75.30;99853.31;1710890;83;21081;-80
2022/08/06 07:41:07;;;;;;;13.10;11.95;;;;;;;25.60;74.06;99849.53;1707017;83;21101;-79
2022/08/06 07:43:54;;;;;;;13.53;12.30;;;;;;;25.61;74.09;99849.27;1661119;85;21043;-80
2022/08/06 07:46:25;;;;;;;14.38;12.93;;;;;;;25.65;73.56;99851.73;1655187;85;21073;-76
2022/08/06 07:48:55;;;;;;;13.53;12.33;;;;;;;25.67;73.09;99853.64;1704408;83;21172;-78
2022/08/06 07:51:24;;;;;;;13.30;12.00;;;;;;;25.69;72.91;99846.03;1707665;82;21032;-80
2022/08/06 07:53:51;;;;;;;12.28;11.20;;;;;;;25.72;72.73;99851.48;1706525;82;21086;-81
2022/08/06 07:56:17;;;;;;;15.38;11.43;;;;;;;25.76;72.77;99850.41;1668503;84;21003;-78
2022/08/06 07:58:47;;;;;;;13.43;12.05;;;;;;;25.88;71.88;99848.27;1710797;82;21027;-80
2022/08/06 08:01:16;;;;;;;12.90;11.70;;;;;;;25.92;71.80;99847.22;1696461;82;21497;-81
2022/08/06 08:06:31;;;;;;;12.78;11.75;;;;;;;25.98;71.72;99842.91;1670011;83;21002;-79
2022/08/06 08:09:04;;;;;;;13.48;12.37;;;;;;;26.01;71.56;99842.91;1676857;84;21042;-81
2022/08/06 08:11:32;;;;;;;14.15;12.63;;;;;;;26.03;71.00;99846.17;1668257;80;20950;-83
2022/08/06 08:13:59;;;;;;;13.55;12.30;;;;;;;26.02;71.19;99845.36;1710043;82;21462;-82
2022/08/06 08:16:26;;;;;;;14.95;13.60;;;;;;;26.03;71.12;99841.54;1722118;82;20993;-81
2022/08/06 08:18:53;;;;;;;15.38;12.35;;;;;;;26.05;71.78;99843.45;1740347;82;21078;-80
2022/08/06 08:21:20;;;;;;;14.10;12.85;;;;;;;26.16;71.87;99847.58;1690932;83;21101;-78
2022/08/06 08:23:47;;;;;;;14.70;13.28;;;;;;;26.27;71.69;99842.43;1652163;85;21066;-81
2022/08/06 08:26:14;;;;;;;14.23;12.93;;;;;;;26.31;71.79;99846.25;1712218;82;21202;-80
2022/08/06 08:28:40;;;;;;;15.43;12.60;;;;;;;26.38;71.20;99848.14;1715533;82;21131;-82
2022/08/06 08:31:08;;;;;;;19.45;13.32;;;;;;;26.41;71.87;99840.00;1718051;81;21069;-81
2022/08/06 08:33:35;;;;;;;13.53;12.33;;;;;;;26.48;71.67;99840.00;1719943;82;21537;-79
2022/08/06 08:36:04;;;;;;;13.43;11.88;;;;;;;26.58;71.99;99839.19;1727822;81;21042;-81
2022/08/06 08:38:33;;;;;;;13.72;12.53;;;;;;;26.66;71.34;99840.59;1716866;82;21109;-78
2022/08/06 08:41:16;;;;;;;12.65;11.43;;;;;;;26.75;71.09;99838.12;1718227;81;21085;-78
2022/08/06 08:43:45;;;;;;;13.25;12.15;;;;;;;26.81;70.69;99828.32;1725355;82;20974;-77
2022/08/06 08:46:12;;;;;;;13.65;12.47;;;;;;;26.86;70.04;99835.11;1716108;83;21062;-77
2022/08/06 08:48:39;;;;;;;12.85;11.78;;;;;;;26.92;69.11;99836.48;1680890;84;21070;-77
2022/08/06 08:51:06;;;;;;;13.95;12.53;;;;;;;26.99;69.80;99834.30;1717471;81;21232;-78
2022/08/06 08:53:40;;;;;;;14.83;9.93;;;;;;;27.08;69.17;99832.63;1719843;83;20999;-78
2022/08/06 08:56:07;;;;;;;11.93;10.30;;;;;;;27.15;67.20;99827.71;1717434;82;21421;-77
2022/08/06 08:58:36;;;;;;;11.85;10.65;;;;;;;27.25;67.10;99829.62;1721538;83;21024;-76
2022/08/06 09:01:06;;;;;;;13.88;10.58;;;;;;;27.39;67.49;99832.58;1719311;81;21065;-76
2022/08/06 09:03:36;;;;;;;11.28;10.25;;;;;;;27.54;66.63;99828.99;1694724;82;21799;-77
2022/08/06 09:06:03;;;;;;;12.18;10.25;;;;;;;27.69;65.67;99828.94;1698603;84;21469;-77
2022/08/06 09:08:31;;;;;;;11.43;10.25;;;;;;;27.85;65.65;99832.40;1654371;85;21091;-78
2022/08/06 09:10:59;;;;;;;10.10;9.20;;;;;;;28.01;64.38;99837.28;1648406;85;21081;-79
2022/08/06 09:13:27;;;;;;;9.88;8.90;;;;;;;28.19;62.88;99829.78;1715256;83;21165;-77
2022/08/06 09:15:53;;;;;;;13.83;9.50;;;;;;;28.36;62.22;99840.33;1715275;83;21440;-77
2022/08/06 09:18:21;;;;;;;12.03;9.28;;;;;;;28.54;61.34;99836.67;1715440;82;21017;-77
2022/08/06 09:20:48;;;;;;;11.28;10.13;;;;;;;28.68;60.91;99838.20;1715206;81;21110;-78
2022/08/06 09:23:17;;;;;;;10.35;9.40;;;;;;;28.87;61.50;99830.92;1716143;83;21521;-77
2022/08/06 09:25:50;;;;;;;10.78;9.78;;;;;;;29.12;60.57;99831.25;1716044;81;21021;-79
2022/08/06 09:28:42;;;;;;;9.65;8.93;;;;;;;29.48;58.45;99834.97;1719783;81;21356;-77
2022/08/06 09:31:13;;;;;;;9.58;8.70;;;;;;;29.80;58.45;99821.18;1720198;81;21062;-79
2022/08/06 09:33:43;;;;;;;10.23;9.23;;;;;;;30.23;56.38;99829.36;1732193;81;21037;-78
2022/08/06 09:36:12;;;;;;;9.98;9.05;;;;;;;30.65;55.80;99826.80;1687237;83;21088;-78
2022/08/06 09:38:57;;;;;;;9.98;8.98;;;;;;;31.11;55.45;99828.19;1713634;83;21536;-79
2022/08/06 09:41:26;;;;;;;10.32;9.50;;;;;;;31.63;54.95;99834.08;1732613;81;21513;-77
2022/08/06 09:43:54;;;;;;;9.35;8.65;;;;;;;32.18;54.27;99832.63;1718956;83;21470;-80
2022/08/06 09:46:42;;;;;;;12.10;9.83;;;;;;;32.71;52.88;99830.53;1718235;81;21042;-79
2022/08/06 09:49:10;;;;;;;9.10;8.40;;;;;;;33.23;51.65;99827.84;1717068;82;21119;-79
2022/08/06 09:51:38;;;;;;;8.78;8.18;;;;;;;33.76;50.04;99823.31;1720254;81;21105;-78
2022/08/06 09:54:09;;;;;;;9.13;8.43;;;;;;;34.18;49.22;99826.47;1715847;83;21085;-77
2022/08/06 09:56:37;;;;;;;8.95;8.25;;;;;;;34.60;48.76;99828.14;1715757;83;21005;-78
2022/08/06 09:59:05;;;;;;;10.15;9.25;;;;;;;35.05;48.29;99821.61;1715238;83;21084;-78
2022/08/06 10:01:42;;;;;;;10.85;9.73;;;;;;;35.48;47.00;99814.88;1722734;81;21060;-77
2022/08/06 10:04:23;;;;;;;9.83;8.83;;;;;;;35.90;45.83;99824.05;1714114;81;21025;-77
2022/08/06 10:06:55;;;;;;;10.23;9.27;;;;;;;36.21;46.44;99827.81;1715793;83;21108;-79
2022/08/06 10:09:23;;;;;;;9.33;7.90;;;;;;;36.56;43.97;99834.98;1710473;83;21116;-77
2022/08/06 10:11:51;;;;;;;9.18;8.35;;;;;;;36.67;43.61;99828.49;1724637;81;21034;-78
2022/08/06 10:14:32;;;;;;;9.30;8.58;;;;;;;36.83;43.01;99832.79;1738916;82;21073;-78
2022/08/06 10:17:16;;;;;;;16.10;8.40;;;;;;;37.03;43.25;99824.16;1722376;82;21061;-78
2022/08/06 10:19:48;;;;;;;9.80;9.05;;;;;;;37.42;42.57;99823.28;1705887;83;21120;-77
2022/08/06 10:22:17;;;;;;;8.70;7.75;;;;;;;37.67;42.03;99819.38;1715553;81;21037;-77
2022/08/06 10:24:49;;;;;;;8.65;8.05;;;;;;;37.85;41.82;99817.72;1715568;81;21017;-79
2022/08/06 10:27:22;;;;;;;8.90;8.18;;;;;;;38.17;42.07;99817.29;1716024;83;21112;-76
2022/08/06 10:29:51;;;;;;;9.85;8.95;;;;;;;38.39;40.98;99819.30;1714585;83;21057;-77
2022/08/06 10:32:48;;;;;;;10.15;9.25;;;;;;;38.60;41.12;99814.95;1726093;81;21224;-78
2022/08/06 10:35:17;;;;;;;8.90;8.13;;;;;;;38.92;40.80;99813.82;1657968;83;21049;-77
2022/08/06 10:37:45;;;;;;;8.75;8.05;;;;;;;39.30;40.30;99815.16;1721091;82;21002;-78
2022/08/06 10:40:12;;;;;;;8.55;7.80;;;;;;;39.49;39.29;99807.50;1721593;83;21017;-77
2022/08/06 10:42:39;;;;;;;8.20;7.60;;;;;;;39.51;39.46;99805.75;1719923;81;21080;-77
2022/08/06 10:45:08;;;;;;;8.08;7.47;;;;;;;39.59;39.20;99813.08;1721653;83;22086;-77
2022/08/06 10:47:35;;;;;;;7.78;7.17;;;;;;;39.63;38.36;99816.73;1703198;81;21046;-77
2022/08/06 10:50:02;;;;;;;8.15;7.28;;;;;;;39.61;37.92;99806.57;1721616;82;21074;-80
2022/08/06 10:52:28;;;;;;;7.75;7.17;;;;;;;39.71;38.01;99810.75;1712057;82;21032;-80
2022/08/06 10:54:56;;;;;;;6.65;6.17;;;;;;;39.88;37.35;99810.95;1725109;81;21029;-79
2022/08/06 10:57:22;;;;;;;7.33;6.70;;;;;;;40.12;37.21;99813.23;1709012;83;21138;-76
2022/08/06 10:59:49;;;;;;;6.85;6.25;;;;;;;40.40;37.02;99809.66;1690227;83;21057;-76
2022/08/06 11:02:40;;;;;;;6.95;6.35;;;;;;;40.71;36.19;99809.23;1689784;83;21108;-79
2022/08/06 11:05:14;;;;;;;6.50;6.00;;;;;;;40.96;35.42;99803.32;1727366;81;21566;-77
2022/08/06 11:07:46;;;;;;;9.80;6.05;;;;;;;40.82;34.77;99807.47;1721579;83;21061;-76
2022/08/06 11:10:44;;;;;;;8.05;7.33;;;;;;;40.78;34.97;99801.60;1717648;81;21807;-78
2022/08/06 11:13:33;;;;;;;6.90;6.40;;;;;;;40.78;35.25;99794.08;1716013;81;21030;-77
2022/08/06 11:16:00;;;;;;;7.42;6.72;;;;;;;41.00;34.98;99800.80;1732489;81;21005;-80
2022/08/06 11:18:26;;;;;;;8.28;6.83;;;;;;;41.16;34.83;99797.06;1732329;81;21056;-75
2022/08/06 11:20:54;;;;;;;8.20;7.15;;;;;;;41.40;34.75;99791.11;1723262;81;21045;-76
2022/08/06 11:23:26;;;;;;;6.28;5.87;;;;;;;41.60;34.67;99786.20;1698139;84;21379;-78
2022/08/06 11:26:01;;;;;;;6.15;5.75;;;;;;;41.82;34.40;99796.27;1711674;81;20997;-76
2022/08/06 11:28:33;;;;;;;6.53;5.92;;;;;;;42.07;33.87;99784.05;1697632;84;21047;-78
2022/08/06 11:31:02;;;;;;;6.65;6.05;;;;;;;42.40;33.57;99787.42;1699078;81;21107;-77
2022/08/06 11:33:41;;;;;;;8.60;6.05;;;;;;;42.68;32.87;99783.92;1724698;81;22385;-77
2022/08/06 11:36:10;;;;;;;6.03;5.53;;;;;;;42.75;33.06;99789.55;1745358;81;21213;-78
2022/08/06 11:38:54;;;;;;;6.12;5.53;;;;;;;42.90;32.74;99795.50;1732899;81;21472;-76
2022/08/06 11:41:27;;;;;;;6.42;5.92;;;;;;;42.93;32.37;99790.55;1757359;81;20993;-77